sensor_id;sensor_type;location;lat;lon;timestamp;P1;durP1;ratioP1;P2;durP2;ratioP2
5052;SDS011;2545;50.892;5.740;2022-07-22T00:02:14;20.70;;;7.87;;
5052;SDS011;2545;50.892;5.740;2022-07-22T00:04:39;22.03;;;8.27;;
5052;SDS011;2545;50.892;5.740;2022-07-22T00:07:05;29.20;;;8.40;;
5052;SDS011;2545;50.892;5.740;2022-07-22T00:09:30;19.43;;;8.20;;
5052;SDS011;2545;50.892;5.740;2022-07-22T00:11:55;21.60;;;7.80;;
5052;SDS011;2545;50.892;5.740;2022-07-22T00:14:21;39.33;;;8.10;;
5052;SDS011;2545;50.892;5.740;2022-07-22T00:16:46;29.87;;;8.10;;
5052;SDS011;2545;50.892;5.740;2022-07-22T00:19:12;22.70;;;8.33;;
5052;SDS011;2545;50.892;5.740;2022-07-22T00:21:38;20.50;;;8.97;;
5052;SDS011;2545;50.892;5.740;2022-07-22T00:24:03;18.40;;;8.10;;
5052;SDS011;2545;50.892;5.740;2022-07-22T00:26:29;21.60;;;7.90;;
5052;SDS011;2545;50.892;5.740;2022-07-22T00:28:54;25.23;;;8.07;;
5052;SDS011;2545;50.892;5.740;2022-07-22T00:31:19;19.43;;;7.97;;
5052;SDS011;2545;50.892;5.740;2022-07-22T00:33:45;20.20;;;7.17;;
5052;SDS011;2545;50.892;5.740;2022-07-22T00:36:10;18.03;;;7.60;;
5052;SDS011;2545;50.892;5.740;2022-07-22T00:38:35;15.27;;;7.50;;
5052;SDS011;2545;50.892;5.740;2022-07-22T00:41:01;18.43;;;8.20;;
5052;SDS011;2545;50.892;5.740;2022-07-22T00:43:26;18.00;;;7.13;;
5052;SDS011;2545;50.892;5.740;2022-07-22T00:45:51;11.80;;;7.30;;
5052;SDS011;2545;50.892;5.740;2022-07-22T00:48:17;32.33;;;8.23;;
5052;SDS011;2545;50.892;5.740;2022-07-22T00:50:42;22.47;;;8.30;;
5052;SDS011;2545;50.892;5.740;2022-07-22T00:53:08;15.73;;;6.97;;
5052;SDS011;2545;50.892;5.740;2022-07-22T00:55:34;16.07;;;7.90;;
5052;SDS011;2545;50.892;5.740;2022-07-22T00:58:00;24.10;;;6.90;;
5052;SDS011;2545;50.892;5.740;2022-07-22T01:00:26;10.37;;;7.10;;
5052;SDS011;2545;50.892;5.740;2022-07-22T01:02:51;15.77;;;6.70;;
5052;SDS011;2545;50.892;5.740;2022-07-22T01:05:16;14.97;;;5.63;;
5052;SDS011;2545;50.892;5.740;2022-07-22T01:07:42;12.17;;;6.13;;
5052;SDS011;2545;50.892;5.740;2022-07-22T01:10:08;11.97;;;6.10;;
5052;SDS011;2545;50.892;5.740;2022-07-22T01:12:34;13.83;;;6.50;;
5052;SDS011;2545;50.892;5.740;2022-07-22T01:15:00;16.00;;;6.03;;
5052;SDS011;2545;50.892;5.740;2022-07-22T01:17:25;15.27;;;6.43;;
5052;SDS011;2545;50.892;5.740;2022-07-22T01:19:51;16.77;;;5.90;;
5052;SDS011;2545;50.892;5.740;2022-07-22T01:22:16;18.63;;;6.00;;
5052;SDS011;2545;50.892;5.740;2022-07-22T01:24:42;15.83;;;6.40;;
5052;SDS011;2545;50.892;5.740;2022-07-22T01:27:07;18.90;;;6.60;;
5052;SDS011;2545;50.892;5.740;2022-07-22T01:29:32;9.73;;;6.20;;
5052;SDS011;2545;50.892;5.740;2022-07-22T01:31:58;18.83;;;6.13;;
5052;SDS011;2545;50.892;5.740;2022-07-22T01:34:24;14.40;;;6.00;;
5052;SDS011;2545;50.892;5.740;2022-07-22T01:36:49;17.23;;;5.77;;
5052;SDS011;2545;50.892;5.740;2022-07-22T01:39:15;14.43;;;6.37;;
5052;SDS011;2545;50.892;5.740;2022-07-22T01:41:41;13.63;;;5.60;;
5052;SDS011;2545;50.892;5.740;2022-07-22T01:44:06;8.60;;;5.47;;
5052;SDS011;2545;50.892;5.740;2022-07-22T01:46:32;20.90;;;5.10;;
5052;SDS011;2545;50.892;5.740;2022-07-22T01:48:57;12.73;;;5.13;;
5052;SDS011;2545;50.892;5.740;2022-07-22T01:51:22;10.77;;;4.90;;
5052;SDS011;2545;50.892;5.740;2022-07-22T01:53:48;7.30;;;4.60;;
5052;SDS011;2545;50.892;5.740;2022-07-22T01:56:14;13.93;;;4.50;;
5052;SDS011;2545;50.892;5.740;2022-07-22T01:58:39;15.10;;;4.37;;
5052;SDS011;2545;50.892;5.740;2022-07-22T02:01:05;11.97;;;4.53;;
5052;SDS011;2545;50.892;5.740;2022-07-22T02:03:31;12.13;;;4.90;;
5052;SDS011;2545;50.892;5.740;2022-07-22T02:05:57;12.87;;;5.00;;
5052;SDS011;2545;50.892;5.740;2022-07-22T02:08:23;9.70;;;4.53;;
5052;SDS011;2545;50.892;5.740;2022-07-22T02:10:48;14.20;;;4.93;;
5052;SDS011;2545;50.892;5.740;2022-07-22T02:13:13;10.40;;;5.33;;
5052;SDS011;2545;50.892;5.740;2022-07-22T02:15:39;12.10;;;5.47;;
5052;SDS011;2545;50.892;5.740;2022-07-22T02:18:14;13.00;;;4.53;;
5052;SDS011;2545;50.892;5.740;2022-07-22T02:20:43;8.00;;;5.20;;
5052;SDS011;2545;50.892;5.740;2022-07-22T02:23:09;15.93;;;5.23;;
5052;SDS011;2545;50.892;5.740;2022-07-22T02:25:36;9.47;;;5.00;;
5052;SDS011;2545;50.892;5.740;2022-07-22T02:28:01;5.70;;;4.17;;
5052;SDS011;2545;50.892;5.740;2022-07-22T02:30:26;4.93;;;3.70;;
5052;SDS011;2545;50.892;5.740;2022-07-22T02:32:52;7.40;;;4.63;;
5052;SDS011;2545;50.892;5.740;2022-07-22T02:35:17;7.87;;;4.30;;
5052;SDS011;2545;50.892;5.740;2022-07-22T02:37:42;15.10;;;4.40;;
5052;SDS011;2545;50.892;5.740;2022-07-22T02:40:08;7.47;;;3.77;;
5052;SDS011;2545;50.892;5.740;2022-07-22T02:42:34;5.60;;;3.90;;
5052;SDS011;2545;50.892;5.740;2022-07-22T02:45:00;9.20;;;4.60;;
5052;SDS011;2545;50.892;5.740;2022-07-22T02:47:25;8.30;;;3.60;;
5052;SDS011;2545;50.892;5.740;2022-07-22T02:49:51;8.20;;;4.30;;
5052;SDS011;2545;50.892;5.740;2022-07-22T02:52:16;5.33;;;3.60;;
5052;SDS011;2545;50.892;5.740;2022-07-22T02:54:42;5.40;;;3.07;;
5052;SDS011;2545;50.892;5.740;2022-07-22T02:57:07;6.50;;;3.97;;
5052;SDS011;2545;50.892;5.740;2022-07-22T02:59:33;7.60;;;4.00;;
5052;SDS011;2545;50.892;5.740;2022-07-22T03:01:58;5.43;;;3.50;;
5052;SDS011;2545;50.892;5.740;2022-07-22T03:04:23;14.20;;;3.70;;
5052;SDS011;2545;50.892;5.740;2022-07-22T03:06:49;12.00;;;4.17;;
5052;SDS011;2545;50.892;5.740;2022-07-22T03:09:14;5.57;;;3.90;;
5052;SDS011;2545;50.892;5.740;2022-07-22T03:11:39;4.83;;;3.53;;
5052;SDS011;2545;50.892;5.740;2022-07-22T03:14:05;13.73;;;3.57;;
5052;SDS011;2545;50.892;5.740;2022-07-22T03:16:30;9.20;;;3.63;;
5052;SDS011;2545;50.892;5.740;2022-07-22T03:18:55;7.43;;;3.80;;
5052;SDS011;2545;50.892;5.740;2022-07-22T03:21:21;4.90;;;3.40;;
5052;SDS011;2545;50.892;5.740;2022-07-22T03:23:46;6.90;;;3.43;;
5052;SDS011;2545;50.892;5.740;2022-07-22T03:26:11;5.67;;;3.63;;
5052;SDS011;2545;50.892;5.740;2022-07-22T03:28:37;5.63;;;3.50;;
5052;SDS011;2545;50.892;5.740;2022-07-22T03:31:02;8.20;;;4.30;;
5052;SDS011;2545;50.892;5.740;2022-07-22T03:33:28;13.33;;;4.33;;
5052;SDS011;2545;50.892;5.740;2022-07-22T03:35:53;5.77;;;3.80;;
5052;SDS011;2545;50.892;5.740;2022-07-22T03:38:18;6.77;;;4.10;;
5052;SDS011;2545;50.892;5.740;2022-07-22T03:40:43;8.93;;;3.47;;
5052;SDS011;2545;50.892;5.740;2022-07-22T03:43:09;12.07;;;3.47;;
5052;SDS011;2545;50.892;5.740;2022-07-22T03:45:34;7.10;;;3.73;;
5052;SDS011;2545;50.892;5.740;2022-07-22T03:47:59;8.90;;;4.17;;
5052;SDS011;2545;50.892;5.740;2022-07-22T03:50:25;11.07;;;4.20;;
5052;SDS011;2545;50.892;5.740;2022-07-22T03:52:50;5.77;;;4.43;;
5052;SDS011;2545;50.892;5.740;2022-07-22T03:55:15;5.73;;;3.80;;
5052;SDS011;2545;50.892;5.740;2022-07-22T03:57:41;9.40;;;3.70;;
5052;SDS011;2545;50.892;5.740;2022-07-22T04:00:06;15.27;;;4.70;;
5052;SDS011;2545;50.892;5.740;2022-07-22T04:02:32;14.07;;;4.23;;
5052;SDS011;2545;50.892;5.740;2022-07-22T04:04:57;7.40;;;4.20;;
5052;SDS011;2545;50.892;5.740;2022-07-22T04:07:23;9.13;;;4.00;;
5052;SDS011;2545;50.892;5.740;2022-07-22T04:09:48;7.13;;;4.13;;
5052;SDS011;2545;50.892;5.740;2022-07-22T04:12:13;7.07;;;4.20;;
5052;SDS011;2545;50.892;5.740;2022-07-22T04:14:38;12.23;;;4.63;;
5052;SDS011;2545;50.892;5.740;2022-07-22T04:17:04;9.27;;;4.77;;
5052;SDS011;2545;50.892;5.740;2022-07-22T04:19:29;8.50;;;4.37;;
5052;SDS011;2545;50.892;5.740;2022-07-22T04:21:54;7.90;;;4.70;;
5052;SDS011;2545;50.892;5.740;2022-07-22T04:24:20;13.13;;;4.63;;
5052;SDS011;2545;50.892;5.740;2022-07-22T04:26:45;8.50;;;4.57;;
5052;SDS011;2545;50.892;5.740;2022-07-22T04:29:11;10.40;;;4.90;;
5052;SDS011;2545;50.892;5.740;2022-07-22T04:31:36;11.63;;;5.07;;
5052;SDS011;2545;50.892;5.740;2022-07-22T04:34:01;10.50;;;4.40;;
5052;SDS011;2545;50.892;5.740;2022-07-22T04:36:26;11.90;;;4.60;;
5052;SDS011;2545;50.892;5.740;2022-07-22T04:38:52;5.73;;;3.70;;
5052;SDS011;2545;50.892;5.740;2022-07-22T04:41:17;12.00;;;4.47;;
5052;SDS011;2545;50.892;5.740;2022-07-22T04:43:43;11.10;;;4.63;;
5052;SDS011;2545;50.892;5.740;2022-07-22T04:46:08;11.30;;;5.07;;
5052;SDS011;2545;50.892;5.740;2022-07-22T04:48:33;5.93;;;4.50;;
5052;SDS011;2545;50.892;5.740;2022-07-22T04:51:02;9.10;;;4.30;;
5052;SDS011;2545;50.892;5.740;2022-07-22T04:53:28;10.73;;;4.37;;
5052;SDS011;2545;50.892;5.740;2022-07-22T04:55:54;7.87;;;4.77;;
5052;SDS011;2545;50.892;5.740;2022-07-22T04:58:19;5.90;;;3.60;;
5052;SDS011;2545;50.892;5.740;2022-07-22T05:00:45;6.13;;;4.00;;
5052;SDS011;2545;50.892;5.740;2022-07-22T05:03:11;7.37;;;4.10;;
5052;SDS011;2545;50.892;5.740;2022-07-22T05:05:37;8.10;;;4.17;;
5052;SDS011;2545;50.892;5.740;2022-07-22T05:08:02;10.13;;;4.73;;
5052;SDS011;2545;50.892;5.740;2022-07-22T05:10:28;10.60;;;4.27;;
5052;SDS011;2545;50.892;5.740;2022-07-22T05:12:53;6.50;;;3.73;;
5052;SDS011;2545;50.892;5.740;2022-07-22T05:15:18;8.80;;;3.90;;
5052;SDS011;2545;50.892;5.740;2022-07-22T05:17:44;11.20;;;4.73;;
5052;SDS011;2545;50.892;5.740;2022-07-22T05:20:09;8.53;;;3.60;;
5052;SDS011;2545;50.892;5.740;2022-07-22T05:22:35;9.50;;;3.80;;
5052;SDS011;2545;50.892;5.740;2022-07-22T05:25:00;5.50;;;3.63;;
5052;SDS011;2545;50.892;5.740;2022-07-22T05:27:26;7.83;;;3.40;;
5052;SDS011;2545;50.892;5.740;2022-07-22T05:29:51;4.80;;;3.30;;
5052;SDS011;2545;50.892;5.740;2022-07-22T05:32:16;4.40;;;3.13;;
5052;SDS011;2545;50.892;5.740;2022-07-22T05:34:41;7.47;;;3.80;;
5052;SDS011;2545;50.892;5.740;2022-07-22T05:37:07;15.77;;;3.73;;
5052;SDS011;2545;50.892;5.740;2022-07-22T05:39:32;8.20;;;3.00;;
5052;SDS011;2545;50.892;5.740;2022-07-22T05:41:57;6.93;;;4.07;;
5052;SDS011;2545;50.892;5.740;2022-07-22T05:44:23;6.07;;;4.30;;
5052;SDS011;2545;50.892;5.740;2022-07-22T05:46:48;15.10;;;5.03;;
5052;SDS011;2545;50.892;5.740;2022-07-22T05:49:14;4.80;;;3.80;;
5052;SDS011;2545;50.892;5.740;2022-07-22T05:51:39;7.23;;;3.80;;
5052;SDS011;2545;50.892;5.740;2022-07-22T05:54:04;8.83;;;4.67;;
5052;SDS011;2545;50.892;5.740;2022-07-22T05:56:30;6.80;;;3.70;;
5052;SDS011;2545;50.892;5.740;2022-07-22T05:58:55;12.60;;;4.10;;
5052;SDS011;2545;50.892;5.740;2022-07-22T06:01:23;10.60;;;4.37;;
5052;SDS011;2545;50.892;5.740;2022-07-22T06:03:49;7.50;;;4.40;;
5052;SDS011;2545;50.892;5.740;2022-07-22T06:06:15;12.67;;;3.77;;
5052;SDS011;2545;50.892;5.740;2022-07-22T06:08:40;8.27;;;3.50;;
5052;SDS011;2545;50.892;5.740;2022-07-22T06:11:05;6.90;;;3.73;;
5052;SDS011;2545;50.892;5.740;2022-07-22T06:13:31;6.77;;;3.40;;
5052;SDS011;2545;50.892;5.740;2022-07-22T06:15:57;6.33;;;2.63;;
5052;SDS011;2545;50.892;5.740;2022-07-22T06:18:22;6.23;;;2.70;;
5052;SDS011;2545;50.892;5.740;2022-07-22T06:20:48;7.33;;;3.00;;
5052;SDS011;2545;50.892;5.740;2022-07-22T06:23:13;4.10;;;2.53;;
5052;SDS011;2545;50.892;5.740;2022-07-22T06:25:39;3.97;;;2.47;;
5052;SDS011;2545;50.892;5.740;2022-07-22T06:28:04;5.47;;;3.20;;
5052;SDS011;2545;50.892;5.740;2022-07-22T06:30:29;5.83;;;2.57;;
5052;SDS011;2545;50.892;5.740;2022-07-22T06:32:55;5.20;;;2.97;;
5052;SDS011;2545;50.892;5.740;2022-07-22T06:35:20;5.27;;;3.60;;
5052;SDS011;2545;50.892;5.740;2022-07-22T06:37:46;5.43;;;2.90;;
5052;SDS011;2545;50.892;5.740;2022-07-22T06:40:11;4.90;;;2.53;;
5052;SDS011;2545;50.892;5.740;2022-07-22T06:42:37;5.83;;;2.87;;
5052;SDS011;2545;50.892;5.740;2022-07-22T06:45:03;5.87;;;3.17;;
5052;SDS011;2545;50.892;5.740;2022-07-22T06:47:29;5.20;;;2.97;;
5052;SDS011;2545;50.892;5.740;2022-07-22T06:49:55;5.40;;;2.63;;
5052;SDS011;2545;50.892;5.740;2022-07-22T06:52:20;7.40;;;2.90;;
5052;SDS011;2545;50.892;5.740;2022-07-22T06:54:46;4.87;;;2.60;;
5052;SDS011;2545;50.892;5.740;2022-07-22T06:57:11;4.90;;;2.37;;
5052;SDS011;2545;50.892;5.740;2022-07-22T06:59:36;8.30;;;2.97;;
5052;SDS011;2545;50.892;5.740;2022-07-22T07:02:01;8.73;;;2.93;;
5052;SDS011;2545;50.892;5.740;2022-07-22T07:04:27;8.07;;;3.23;;
5052;SDS011;2545;50.892;5.740;2022-07-22T07:06:52;7.50;;;2.90;;
5052;SDS011;2545;50.892;5.740;2022-07-22T07:09:17;3.20;;;2.60;;
5052;SDS011;2545;50.892;5.740;2022-07-22T07:11:43;10.53;;;2.67;;
5052;SDS011;2545;50.892;5.740;2022-07-22T07:14:08;6.63;;;3.37;;
5052;SDS011;2545;50.892;5.740;2022-07-22T07:16:33;6.27;;;2.90;;
5052;SDS011;2545;50.892;5.740;2022-07-22T07:18:59;5.00;;;3.20;;
5052;SDS011;2545;50.892;5.740;2022-07-22T07:21:24;5.43;;;2.90;;
5052;SDS011;2545;50.892;5.740;2022-07-22T07:23:50;11.03;;;3.30;;
5052;SDS011;2545;50.892;5.740;2022-07-22T07:26:15;6.70;;;2.90;;
5052;SDS011;2545;50.892;5.740;2022-07-22T07:28:41;16.23;;;3.23;;
5052;SDS011;2545;50.892;5.740;2022-07-22T07:31:06;10.00;;;3.30;;
5052;SDS011;2545;50.892;5.740;2022-07-22T07:33:32;7.70;;;3.30;;
5052;SDS011;2545;50.892;5.740;2022-07-22T07:35:58;6.50;;;3.33;;
5052;SDS011;2545;50.892;5.740;2022-07-22T07:38:24;10.00;;;4.30;;
5052;SDS011;2545;50.892;5.740;2022-07-22T07:40:49;7.17;;;3.80;;
5052;SDS011;2545;50.892;5.740;2022-07-22T07:43:14;6.07;;;3.17;;
5052;SDS011;2545;50.892;5.740;2022-07-22T07:45:40;6.27;;;3.27;;
5052;SDS011;2545;50.892;5.740;2022-07-22T07:48:06;4.83;;;3.27;;
5052;SDS011;2545;50.892;5.740;2022-07-22T07:50:31;7.60;;;3.70;;
5052;SDS011;2545;50.892;5.740;2022-07-22T07:52:57;5.93;;;3.60;;
5052;SDS011;2545;50.892;5.740;2022-07-22T07:55:22;12.60;;;3.37;;
5052;SDS011;2545;50.892;5.740;2022-07-22T07:57:48;7.87;;;3.17;;
5052;SDS011;2545;50.892;5.740;2022-07-22T08:00:15;9.30;;;3.10;;
5052;SDS011;2545;50.892;5.740;2022-07-22T08:02:42;7.83;;;2.93;;
5052;SDS011;2545;50.892;5.740;2022-07-22T08:05:08;4.90;;;3.10;;
5052;SDS011;2545;50.892;5.740;2022-07-22T08:07:34;12.80;;;2.90;;
5052;SDS011;2545;50.892;5.740;2022-07-22T08:10:00;7.70;;;3.17;;
5052;SDS011;2545;50.892;5.740;2022-07-22T08:12:25;7.70;;;3.90;;
5052;SDS011;2545;50.892;5.740;2022-07-22T08:14:51;12.37;;;3.33;;
5052;SDS011;2545;50.892;5.740;2022-07-22T08:17:16;6.60;;;3.90;;
5052;SDS011;2545;50.892;5.740;2022-07-22T08:19:42;5.53;;;3.10;;
5052;SDS011;2545;50.892;5.740;2022-07-22T08:22:07;6.50;;;3.63;;
5052;SDS011;2545;50.892;5.740;2022-07-22T08:24:33;7.27;;;4.50;;
5052;SDS011;2545;50.892;5.740;2022-07-22T08:26:58;5.63;;;2.97;;
5052;SDS011;2545;50.892;5.740;2022-07-22T08:29:24;6.83;;;3.67;;
5052;SDS011;2545;50.892;5.740;2022-07-22T08:31:49;17.73;;;3.90;;
5052;SDS011;2545;50.892;5.740;2022-07-22T08:34:14;6.27;;;3.30;;
5052;SDS011;2545;50.892;5.740;2022-07-22T08:36:40;6.07;;;3.20;;
5052;SDS011;2545;50.892;5.740;2022-07-22T08:39:05;7.47;;;3.00;;
5052;SDS011;2545;50.892;5.740;2022-07-22T08:41:33;5.43;;;2.97;;
5052;SDS011;2545;50.892;5.740;2022-07-22T08:44:01;12.40;;;3.60;;
5052;SDS011;2545;50.892;5.740;2022-07-22T08:46:28;7.73;;;3.97;;
5052;SDS011;2545;50.892;5.740;2022-07-22T08:48:53;5.40;;;2.90;;
5052;SDS011;2545;50.892;5.740;2022-07-22T08:51:20;7.37;;;3.90;;
5052;SDS011;2545;50.892;5.740;2022-07-22T08:53:46;8.57;;;3.60;;
5052;SDS011;2545;50.892;5.740;2022-07-22T08:56:14;6.07;;;3.50;;
5052;SDS011;2545;50.892;5.740;2022-07-22T08:58:39;4.97;;;3.40;;
5052;SDS011;2545;50.892;5.740;2022-07-22T09:01:10;5.60;;;3.57;;
5052;SDS011;2545;50.892;5.740;2022-07-22T09:03:47;7.30;;;3.50;;
5052;SDS011;2545;50.892;5.740;2022-07-22T09:06:14;6.60;;;3.60;;
5052;SDS011;2545;50.892;5.740;2022-07-22T09:08:56;10.67;;;4.40;;
5052;SDS011;2545;50.892;5.740;2022-07-22T09:11:24;7.93;;;3.30;;
5052;SDS011;2545;50.892;5.740;2022-07-22T09:13:51;6.40;;;3.43;;
5052;SDS011;2545;50.892;5.740;2022-07-22T09:16:27;9.93;;;4.00;;
5052;SDS011;2545;50.892;5.740;2022-07-22T09:19:02;7.57;;;3.37;;
5052;SDS011;2545;50.892;5.740;2022-07-22T09:21:31;10.27;;;4.10;;
5052;SDS011;2545;50.892;5.740;2022-07-22T09:23:56;15.13;;;4.10;;
5052;SDS011;2545;50.892;5.740;2022-07-22T09:26:38;7.70;;;3.77;;
5052;SDS011;2545;50.892;5.740;2022-07-22T09:29:05;6.00;;;3.80;;
5052;SDS011;2545;50.892;5.740;2022-07-22T09:31:32;6.33;;;3.70;;
5052;SDS011;2545;50.892;5.740;2022-07-22T09:33:59;10.30;;;4.23;;
5052;SDS011;2545;50.892;5.740;2022-07-22T09:36:25;10.13;;;4.00;;
5052;SDS011;2545;50.892;5.740;2022-07-22T09:38:50;6.53;;;3.77;;
5052;SDS011;2545;50.892;5.740;2022-07-22T09:41:16;13.67;;;4.13;;
5052;SDS011;2545;50.892;5.740;2022-07-22T09:43:42;8.90;;;5.00;;
5052;SDS011;2545;50.892;5.740;2022-07-22T09:46:07;9.03;;;3.60;;
5052;SDS011;2545;50.892;5.740;2022-07-22T09:48:34;7.80;;;3.83;;
5052;SDS011;2545;50.892;5.740;2022-07-22T09:51:01;5.90;;;4.10;;
5052;SDS011;2545;50.892;5.740;2022-07-22T09:53:28;5.80;;;4.63;;
5052;SDS011;2545;50.892;5.740;2022-07-22T09:55:55;5.93;;;4.40;;
5052;SDS011;2545;50.892;5.740;2022-07-22T09:58:21;8.37;;;4.50;;
5052;SDS011;2545;50.892;5.740;2022-07-22T10:00:47;14.47;;;5.03;;
5052;SDS011;2545;50.892;5.740;2022-07-22T10:03:25;10.83;;;5.13;;
5052;SDS011;2545;50.892;5.740;2022-07-22T10:05:52;6.60;;;5.27;;
5052;SDS011;2545;50.892;5.740;2022-07-22T10:08:19;8.90;;;5.30;;
5052;SDS011;2545;50.892;5.740;2022-07-22T10:10:45;9.33;;;5.03;;
5052;SDS011;2545;50.892;5.740;2022-07-22T10:13:11;7.80;;;5.27;;
5052;SDS011;2545;50.892;5.740;2022-07-22T10:15:36;7.53;;;5.80;;
5052;SDS011;2545;50.892;5.740;2022-07-22T10:18:06;6.97;;;4.70;;
5052;SDS011;2545;50.892;5.740;2022-07-22T10:20:37;14.90;;;5.20;;
5052;SDS011;2545;50.892;5.740;2022-07-22T10:23:04;10.47;;;4.97;;
5052;SDS011;2545;50.892;5.740;2022-07-22T10:25:32;8.90;;;4.80;;
5052;SDS011;2545;50.892;5.740;2022-07-22T10:28:20;11.53;;;4.90;;
5052;SDS011;2545;50.892;5.740;2022-07-22T10:30:50;5.30;;;4.77;;
5052;SDS011;2545;50.892;5.740;2022-07-22T10:33:19;7.60;;;5.00;;
5052;SDS011;2545;50.892;5.740;2022-07-22T10:38:19;7.30;;;4.70;;
5052;SDS011;2545;50.892;5.740;2022-07-22T10:43:26;6.43;;;4.80;;
5052;SDS011;2545;50.892;5.740;2022-07-22T10:48:25;8.97;;;5.00;;
5052;SDS011;2545;50.892;5.740;2022-07-22T10:51:11;6.50;;;5.10;;
5052;SDS011;2545;50.892;5.740;2022-07-22T10:56:29;7.00;;;3.70;;
5052;SDS011;2545;50.892;5.740;2022-07-22T10:59:06;9.63;;;4.47;;
5052;SDS011;2545;50.892;5.740;2022-07-22T11:01:35;6.67;;;4.57;;
5052;SDS011;2545;50.892;5.740;2022-07-22T11:04:14;4.37;;;3.43;;
5052;SDS011;2545;50.892;5.740;2022-07-22T11:06:42;5.57;;;3.70;;
5052;SDS011;2545;50.892;5.740;2022-07-22T11:09:09;7.97;;;5.10;;
5052;SDS011;2545;50.892;5.740;2022-07-22T11:11:54;5.73;;;4.77;;
5052;SDS011;2545;50.892;5.740;2022-07-22T11:14:28;5.83;;;4.57;;
5052;SDS011;2545;50.892;5.740;2022-07-22T11:16:56;6.67;;;4.67;;
5052;SDS011;2545;50.892;5.740;2022-07-22T11:19:27;9.30;;;4.83;;
5052;SDS011;2545;50.892;5.740;2022-07-22T11:21:55;8.67;;;5.17;;
5052;SDS011;2545;50.892;5.740;2022-07-22T11:24:22;9.73;;;5.20;;
5052;SDS011;2545;50.892;5.740;2022-07-22T11:26:49;12.80;;;4.90;;
5052;SDS011;2545;50.892;5.740;2022-07-22T11:29:32;6.60;;;5.20;;
5052;SDS011;2545;50.892;5.740;2022-07-22T11:32:01;9.93;;;5.57;;
5052;SDS011;2545;50.892;5.740;2022-07-22T11:34:29;5.67;;;5.13;;
5052;SDS011;2545;50.892;5.740;2022-07-22T11:36:55;6.80;;;5.90;;
5052;SDS011;2545;50.892;5.740;2022-07-22T11:39:22;8.93;;;5.27;;
5052;SDS011;2545;50.892;5.740;2022-07-22T11:41:51;7.00;;;5.30;;
5052;SDS011;2545;50.892;5.740;2022-07-22T11:44:18;8.60;;;5.00;;
5052;SDS011;2545;50.892;5.740;2022-07-22T11:46:45;5.33;;;4.60;;
5052;SDS011;2545;50.892;5.740;2022-07-22T11:49:12;5.60;;;4.80;;
5052;SDS011;2545;50.892;5.740;2022-07-22T11:51:39;8.70;;;5.27;;
5052;SDS011;2545;50.892;5.740;2022-07-22T11:54:04;7.30;;;6.30;;
5052;SDS011;2545;50.892;5.740;2022-07-22T11:56:31;6.60;;;5.10;;
5052;SDS011;2545;50.892;5.740;2022-07-22T11:58:57;5.90;;;4.77;;
5052;SDS011;2545;50.892;5.740;2022-07-22T12:01:24;5.50;;;4.70;;
5052;SDS011;2545;50.892;5.740;2022-07-22T12:03:54;6.80;;;4.40;;
5052;SDS011;2545;50.892;5.740;2022-07-22T12:06:23;7.60;;;5.67;;
5052;SDS011;2545;50.892;5.740;2022-07-22T12:09:10;8.77;;;5.80;;
5052;SDS011;2545;50.892;5.740;2022-07-22T12:11:39;7.67;;;5.00;;
5052;SDS011;2545;50.892;5.740;2022-07-22T12:14:10;6.57;;;4.80;;
5052;SDS011;2545;50.892;5.740;2022-07-22T12:16:37;12.83;;;4.83;;
5052;SDS011;2545;50.892;5.740;2022-07-22T12:19:21;8.63;;;5.90;;
5052;SDS011;2545;50.892;5.740;2022-07-22T12:21:51;7.30;;;5.63;;
5052;SDS011;2545;50.892;5.740;2022-07-22T12:26:53;4.53;;;4.00;;
5052;SDS011;2545;50.892;5.740;2022-07-22T12:29:24;8.40;;;4.83;;
5052;SDS011;2545;50.892;5.740;2022-07-22T12:32:01;8.40;;;5.00;;
5052;SDS011;2545;50.892;5.740;2022-07-22T12:34:37;6.37;;;4.27;;
5052;SDS011;2545;50.892;5.740;2022-07-22T12:39:58;8.45;;;4.60;;
5052;SDS011;2545;50.892;5.740;2022-07-22T12:42:25;5.95;;;3.85;;
5052;SDS011;2545;50.892;5.740;2022-07-22T12:47:40;6.32;;;4.22;;
5052;SDS011;2545;50.892;5.740;2022-07-22T12:52:56;4.07;;;3.35;;
5052;SDS011;2545;50.892;5.740;2022-07-22T12:55:22;4.55;;;4.15;;
5052;SDS011;2545;50.892;5.740;2022-07-22T12:57:48;4.30;;;3.50;;
5052;SDS011;2545;50.892;5.740;2022-07-22T13:00:21;5.75;;;3.30;;
5052;SDS011;2545;50.892;5.740;2022-07-22T13:02:53;4.88;;;3.60;;
5052;SDS011;2545;50.892;5.740;2022-07-22T13:05:20;4.30;;;3.90;;
5052;SDS011;2545;50.892;5.740;2022-07-22T13:07:46;3.75;;;3.45;;
5052;SDS011;2545;50.892;5.740;2022-07-22T13:10:12;7.10;;;3.90;;
5052;SDS011;2545;50.892;5.740;2022-07-22T13:12:39;3.70;;;3.28;;
5052;SDS011;2545;50.892;5.740;2022-07-22T13:15:04;3.97;;;3.28;;
5052;SDS011;2545;50.892;5.740;2022-07-22T13:17:30;5.38;;;3.20;;
5052;SDS011;2545;50.892;5.740;2022-07-22T13:19:56;6.05;;;3.55;;
5052;SDS011;2545;50.892;5.740;2022-07-22T13:22:21;4.73;;;3.90;;
5052;SDS011;2545;50.892;5.740;2022-07-22T13:24:46;6.70;;;3.73;;
5052;SDS011;2545;50.892;5.740;2022-07-22T13:27:12;5.23;;;4.53;;
5052;SDS011;2545;50.892;5.740;2022-07-22T13:29:38;4.20;;;3.63;;
5052;SDS011;2545;50.892;5.740;2022-07-22T13:32:03;6.33;;;3.67;;
5052;SDS011;2545;50.892;5.740;2022-07-22T13:34:29;4.43;;;3.50;;
5052;SDS011;2545;50.892;5.740;2022-07-22T13:36:54;6.47;;;2.90;;
5052;SDS011;2545;50.892;5.740;2022-07-22T13:39:20;7.60;;;2.20;;
5052;SDS011;2545;50.892;5.740;2022-07-22T13:41:46;3.30;;;3.00;;
5052;SDS011;2545;50.892;5.740;2022-07-22T13:44:12;6.63;;;3.30;;
5052;SDS011;2545;50.892;5.740;2022-07-22T13:46:37;2.97;;;2.67;;
5052;SDS011;2545;50.892;5.740;2022-07-22T13:49:03;5.13;;;3.60;;
5052;SDS011;2545;50.892;5.740;2022-07-22T13:51:28;3.87;;;3.07;;
5052;SDS011;2545;50.892;5.740;2022-07-22T13:53:53;2.70;;;2.50;;
5052;SDS011;2545;50.892;5.740;2022-07-22T13:56:19;4.60;;;2.97;;
5052;SDS011;2545;50.892;5.740;2022-07-22T13:58:45;6.40;;;3.20;;
5052;SDS011;2545;50.892;5.740;2022-07-22T14:01:11;6.70;;;4.43;;
5052;SDS011;2545;50.892;5.740;2022-07-22T14:03:37;10.00;;;3.80;;
5052;SDS011;2545;50.892;5.740;2022-07-22T14:06:03;3.13;;;2.83;;
5052;SDS011;2545;50.892;5.740;2022-07-22T14:08:29;5.30;;;3.13;;
5052;SDS011;2545;50.892;5.740;2022-07-22T14:10:55;5.53;;;3.20;;
5052;SDS011;2545;50.892;5.740;2022-07-22T14:13:20;4.93;;;3.97;;
5052;SDS011;2545;50.892;5.740;2022-07-22T14:15:45;3.80;;;2.73;;
5052;SDS011;2545;50.892;5.740;2022-07-22T14:18:10;3.90;;;3.50;;
5052;SDS011;2545;50.892;5.740;2022-07-22T14:20:36;5.90;;;3.20;;
5052;SDS011;2545;50.892;5.740;2022-07-22T14:23:02;5.30;;;3.10;;
5052;SDS011;2545;50.892;5.740;2022-07-22T14:25:30;5.80;;;3.63;;
5052;SDS011;2545;50.892;5.740;2022-07-22T14:27:56;5.80;;;3.23;;
5052;SDS011;2545;50.892;5.740;2022-07-22T14:30:22;4.50;;;3.20;;
5052;SDS011;2545;50.892;5.740;2022-07-22T14:32:47;6.43;;;3.87;;
5052;SDS011;2545;50.892;5.740;2022-07-22T14:35:12;4.30;;;2.97;;
5052;SDS011;2545;50.892;5.740;2022-07-22T14:37:37;7.43;;;4.00;;
5052;SDS011;2545;50.892;5.740;2022-07-22T14:40:03;6.03;;;4.83;;
5052;SDS011;2545;50.892;5.740;2022-07-22T14:42:29;4.97;;;3.90;;
5052;SDS011;2545;50.892;5.740;2022-07-22T14:44:54;4.70;;;3.90;;
5052;SDS011;2545;50.892;5.740;2022-07-22T14:47:20;4.87;;;4.33;;
5052;SDS011;2545;50.892;5.740;2022-07-22T14:49:45;5.77;;;4.23;;
5052;SDS011;2545;50.892;5.740;2022-07-22T14:52:10;5.73;;;4.33;;
5052;SDS011;2545;50.892;5.740;2022-07-22T14:54:36;4.23;;;3.50;;
5052;SDS011;2545;50.892;5.740;2022-07-22T14:57:01;3.80;;;3.50;;
5052;SDS011;2545;50.892;5.740;2022-07-22T14:59:27;5.90;;;4.03;;
5052;SDS011;2545;50.892;5.740;2022-07-22T15:01:54;6.35;;;4.65;;
5052;SDS011;2545;50.892;5.740;2022-07-22T15:04:19;4.97;;;3.83;;
5052;SDS011;2545;50.892;5.740;2022-07-22T15:06:45;5.40;;;4.85;;
5052;SDS011;2545;50.892;5.740;2022-07-22T15:09:10;5.53;;;5.03;;
5052;SDS011;2545;50.892;5.740;2022-07-22T15:11:35;7.90;;;5.32;;
5052;SDS011;2545;50.892;5.740;2022-07-22T15:14:01;7.25;;;4.05;;
5052;SDS011;2545;50.892;5.740;2022-07-22T15:16:26;4.72;;;4.25;;
5052;SDS011;2545;50.892;5.740;2022-07-22T15:18:52;5.10;;;3.30;;
5052;SDS011;2545;50.892;5.740;2022-07-22T15:21:17;5.80;;;3.65;;
5052;SDS011;2545;50.892;5.740;2022-07-22T15:23:43;8.35;;;4.32;;
5052;SDS011;2545;50.892;5.740;2022-07-22T15:26:08;5.70;;;3.42;;
5052;SDS011;2545;50.892;5.740;2022-07-22T15:28:34;4.20;;;3.83;;
5052;SDS011;2545;50.892;5.740;2022-07-22T15:31:02;3.50;;;3.20;;